K.pluto — 3EYQ3 — position and weather

sailwx.info

Track history (hours):
 
Tides and Currents Weather Stations Pressure Air Temp Water Temp Dewpoint Dewpoint Depression Visibility Wind Speed Wind Dir Waves Ship Positions

K.pluto

Last reported at 2016-Sep-27 00:29 UTC. Time now 2016-Oct-01 10:25 UTC.
Position N 38°57' E 117°44'.

Length 170 m; draft 6.1 m.

Type: Cargo ship. MMSI: 373504000.

Date/timePositionNaut miles runAvg speedWind from/ knotsBaromVisibWave heightAir tempDewpointWater temp
2016-Sep-27 00:29N 38°57' E 117°44'0 0.0
2016-Sep-26 20:29N 38°57' E 117°44'0 0.0
2016-Sep-26 19:29N 38°57' E 117°44'0 0.0
2016-Sep-26 15:29N 38°57' E 117°44'0 0.0
2016-Sep-26 13:23N 38°57' E 117°44'0 0.0
2016-Sep-26 11:17N 38°57' E 117°44'0 0.0
2016-Sep-26 08:29N 38°57' E 117°44'0 0.0
2016-Sep-26 02:23N 38°57' E 117°44'0 0.0
2016-Sep-26 01:29N 38°57' E 117°44'0 0.0
2016-Sep-26 00:29N 38°57' E 117°44'0 0.0
2016-Sep-25 21:29N 38°57' E 117°44'0 0.0
2016-Sep-25 17:29N 38°57' E 117°44'0 0.0
2016-Sep-25 16:05N 38°57' E 117°44'0 0.0
2016-Sep-25 15:23N 38°57' E 117°44'0 0.0
2016-Sep-25 14:29N 38°57' E 117°44'0 0.0
2016-Sep-25 12:29N 38°57' E 117°44'0 0.0
2016-Sep-25 11:23N 38°57' E 117°44'0 0.0
2016-Sep-25 10:29N 38°57' E 117°44'0 0.0
2016-Sep-25 09:29N 38°57' E 117°44'0 0.0
2016-Sep-25 07:23N 38°57' E 117°44'155 5.5
2016-Sep-24 03:28N 38°34' E 121°00'10413.0
2016-Sep-23 19:27N 37°41' E 122°55'2311.9
2016-Sep-23 17:33N 37°26' E 123°16'1413.8
2016-Sep-23 16:33N 37°12' E 123°16'1414.0
2016-Sep-23 15:32N 36°58' E 123°17'35510.1
2016-Sep-22 04:33N 31°15' E 121°29'6 6.2
2016-Sep-22 03:32N 31°09' E 121°27'3 0.1
2016-Sep-20 08:32N 31°12' E 121°29'4 4.0
2016-Sep-20 07:33N 31°15' E 121°31'5 5.0
2016-Sep-20 06:33N 31°20' E 121°34'  
Track history (hours):
 
Tides and Currents Weather Stations Pressure Air Temp Water Temp Dewpoint Dewpoint Depression Visibility Wind Speed Wind Dir Waves Ship Positions

K.pluto

Last reported at 2016-Sep-27 00:29 UTC. Time now 2016-Oct-01 10:25 UTC.
Position N 38°57' E 117°44'.

Length 170 m; draft 6.1 m.

Type: Cargo ship. MMSI: 373504000.

Date/timePositionNaut miles runAvg speedWind from/ knotsBaromVisibWave heightAir tempDewpointWater temp
2016-Sep-27 00:29N 38°57' E 117°44'0 0.0
2016-Sep-26 20:29N 38°57' E 117°44'0 0.0
2016-Sep-26 19:29N 38°57' E 117°44'0 0.0
2016-Sep-26 15:29N 38°57' E 117°44'0 0.0
2016-Sep-26 13:23N 38°57' E 117°44'0 0.0
2016-Sep-26 11:17N 38°57' E 117°44'0 0.0
2016-Sep-26 08:29N 38°57' E 117°44'0 0.0
2016-Sep-26 02:23N 38°57' E 117°44'0 0.0
2016-Sep-26 01:29N 38°57' E 117°44'0 0.0
2016-Sep-26 00:29N 38°57' E 117°44'0 0.0
2016-Sep-25 21:29N 38°57' E 117°44'0 0.0
2016-Sep-25 17:29N 38°57' E 117°44'0 0.0
2016-Sep-25 16:05N 38°57' E 117°44'0 0.0
2016-Sep-25 15:23N 38°57' E 117°44'0 0.0
2016-Sep-25 14:29N 38°57' E 117°44'0 0.0
2016-Sep-25 12:29N 38°57' E 117°44'0 0.0
2016-Sep-25 11:23N 38°57' E 117°44'0 0.0
2016-Sep-25 10:29N 38°57' E 117°44'0 0.0
2016-Sep-25 09:29N 38°57' E 117°44'0 0.0
2016-Sep-25 07:23N 38°57' E 117°44'155 5.5
2016-Sep-24 03:28N 38°34' E 121°00'10413.0
2016-Sep-23 19:27N 37°41' E 122°55'2311.9
2016-Sep-23 17:33N 37°26' E 123°16'1413.8
2016-Sep-23 16:33N 37°12' E 123°16'1414.0
2016-Sep-23 15:32N 36°58' E 123°17'35510.1
2016-Sep-22 04:33N 31°15' E 121°29'6 6.2
2016-Sep-22 03:32N 31°09' E 121°27'3 0.1
2016-Sep-20 08:32N 31°12' E 121°29'4 4.0
2016-Sep-20 07:33N 31°15' E 121°31'5 5.0
2016-Sep-20 06:33N 31°20' E 121°34'  

Dump ship's entire track history